sensor_id;sensor_type;location;lat;lon;timestamp;pressure;altitude;pressure_sealevel;temperature
42119;BMP280;27783;42.782;23.274;2023-09-19T00:01:28;95910.22;;;15.89
42119;BMP280;27783;42.782;23.274;2023-09-19T00:03:55;95915.06;;;15.94
42119;BMP280;27783;42.782;23.274;2023-09-19T00:06:22;95917.13;;;15.83
42119;BMP280;27783;42.782;23.274;2023-09-19T00:08:51;95906.50;;;15.83
42119;BMP280;27783;42.782;23.274;2023-09-19T00:11:17;95908.38;;;15.86
42119;BMP280;27783;42.782;23.274;2023-09-19T00:13:42;95920.38;;;15.72
42119;BMP280;27783;42.782;23.274;2023-09-19T00:16:09;95914.81;;;15.85
42119;BMP280;27783;42.782;23.274;2023-09-19T00:18:38;95920.53;;;15.84
42119;BMP280;27783;42.782;23.274;2023-09-19T00:21:03;95913.09;;;15.76
42119;BMP280;27783;42.782;23.274;2023-09-19T00:23:32;95914.72;;;15.70
42119;BMP280;27783;42.782;23.274;2023-09-19T00:25:59;95908.16;;;15.74
42119;BMP280;27783;42.782;23.274;2023-09-19T00:28:24;95896.84;;;15.70
42119;BMP280;27783;42.782;23.274;2023-09-19T00:30:50;95893.63;;;15.60
42119;BMP280;27783;42.782;23.274;2023-09-19T00:33:15;95889.84;;;15.57
42119;BMP280;27783;42.782;23.274;2023-09-19T00:35:51;95887.72;;;15.49
42119;BMP280;27783;42.782;23.274;2023-09-19T00:38:17;95890.66;;;15.54
42119;BMP280;27783;42.782;23.274;2023-09-19T00:40:46;95894.75;;;15.59
42119;BMP280;27783;42.782;23.274;2023-09-19T00:43:12;95896.63;;;15.62
42119;BMP280;27783;42.782;23.274;2023-09-19T00:45:42;95899.63;;;15.64
42119;BMP280;27783;42.782;23.274;2023-09-19T00:48:09;95908.91;;;15.52
42119;BMP280;27783;42.782;23.274;2023-09-19T00:50:35;95904.03;;;15.48
42119;BMP280;27783;42.782;23.274;2023-09-19T00:53:02;95905.50;;;15.52
42119;BMP280;27783;42.782;23.274;2023-09-19T00:55:33;95901.28;;;15.54
42119;BMP280;27783;42.782;23.274;2023-09-19T00:57:59;95890.31;;;15.52
42119;BMP280;27783;42.782;23.274;2023-09-19T01:00:25;95894.38;;;15.34
42119;BMP280;27783;42.782;23.274;2023-09-19T01:02:51;95884.81;;;15.40
42119;BMP280;27783;42.782;23.274;2023-09-19T01:05:17;95897.09;;;15.31
42119;BMP280;27783;42.782;23.274;2023-09-19T01:07:43;95900.97;;;15.27
42119;BMP280;27783;42.782;23.274;2023-09-19T01:10:15;95899.63;;;15.38
42119;BMP280;27783;42.782;23.274;2023-09-19T01:12:51;95902.81;;;15.30
42119;BMP280;27783;42.782;23.274;2023-09-19T01:15:30;95905.72;;;15.13
42119;BMP280;27783;42.782;23.274;2023-09-19T01:23:22;95899.97;;;15.18
42119;BMP280;27783;42.782;23.274;2023-09-19T01:28:32;95900.78;;;15.11
42119;BMP280;27783;42.782;23.274;2023-09-19T01:31:02;95892.06;;;15.14
42119;BMP280;27783;42.782;23.274;2023-09-19T01:33:47;95889.22;;;14.99
42119;BMP280;27783;42.782;23.274;2023-09-19T01:36:16;95896.34;;;15.05
42119;BMP280;27783;42.782;23.274;2023-09-19T01:38:42;95897.56;;;15.01
42119;BMP280;27783;42.782;23.274;2023-09-19T01:41:11;95897.50;;;15.04
42119;BMP280;27783;42.782;23.274;2023-09-19T01:43:41;95905.44;;;15.07
42119;BMP280;27783;42.782;23.274;2023-09-19T01:46:38;95896.00;;;15.03
42119;BMP280;27783;42.782;23.274;2023-09-19T01:49:18;95915.13;;;14.91
42119;BMP280;27783;42.782;23.274;2023-09-19T01:52:10;95909.22;;;14.77
42119;BMP280;27783;42.782;23.274;2023-09-19T01:54:46;95912.25;;;14.76
42119;BMP280;27783;42.782;23.274;2023-09-19T02:00:10;95907.91;;;14.59
42119;BMP280;27783;42.782;23.274;2023-09-19T02:02:42;95910.97;;;14.58
42119;BMP280;27783;42.782;23.274;2023-09-19T02:05:09;95896.03;;;14.70
42119;BMP280;27783;42.782;23.274;2023-09-19T02:07:35;95909.75;;;14.62
42119;BMP280;27783;42.782;23.274;2023-09-19T02:10:01;95912.50;;;14.55
42119;BMP280;27783;42.782;23.274;2023-09-19T02:12:27;95911.22;;;14.34
42119;BMP280;27783;42.782;23.274;2023-09-19T02:14:52;95897.78;;;14.18
42119;BMP280;27783;42.782;23.274;2023-09-19T02:17:18;95901.50;;;14.24
42119;BMP280;27783;42.782;23.274;2023-09-19T02:19:44;95900.06;;;14.17
42119;BMP280;27783;42.782;23.274;2023-09-19T02:22:10;95895.63;;;14.07
42119;BMP280;27783;42.782;23.274;2023-09-19T02:24:38;95903.88;;;14.16
42119;BMP280;27783;42.782;23.274;2023-09-19T02:27:04;95905.72;;;14.18
42119;BMP280;27783;42.782;23.274;2023-09-19T02:29:30;95893.97;;;14.19
42119;BMP280;27783;42.782;23.274;2023-09-19T02:31:56;95898.06;;;14.27
42119;BMP280;27783;42.782;23.274;2023-09-19T02:34:22;95892.03;;;14.23
42119;BMP280;27783;42.782;23.274;2023-09-19T02:36:48;95890.09;;;14.27
42119;BMP280;27783;42.782;23.274;2023-09-19T02:39:14;95880.22;;;14.31
42119;BMP280;27783;42.782;23.274;2023-09-19T02:41:39;95884.28;;;14.39
42119;BMP280;27783;42.782;23.274;2023-09-19T02:44:07;95873.28;;;14.40
42119;BMP280;27783;42.782;23.274;2023-09-19T02:46:33;95874.03;;;14.41
42119;BMP280;27783;42.782;23.274;2023-09-19T02:48:59;95877.97;;;14.26
42119;BMP280;27783;42.782;23.274;2023-09-19T02:51:24;95883.88;;;14.08
42119;BMP280;27783;42.782;23.274;2023-09-19T02:53:50;95885.34;;;13.23
42119;BMP280;27783;42.782;23.274;2023-09-19T02:56:18;95874.28;;;12.79
42119;BMP280;27783;42.782;23.274;2023-09-19T02:58:43;95874.47;;;13.08
42119;BMP280;27783;42.782;23.274;2023-09-19T03:01:10;95882.66;;;13.27
42119;BMP280;27783;42.782;23.274;2023-09-19T03:03:38;95867.44;;;13.41
42119;BMP280;27783;42.782;23.274;2023-09-19T03:06:07;95861.56;;;13.66
42119;BMP280;27783;42.782;23.274;2023-09-19T03:08:39;95867.19;;;13.68
42119;BMP280;27783;42.782;23.274;2023-09-19T03:11:24;95858.06;;;13.76
42119;BMP280;27783;42.782;23.274;2023-09-19T03:13:54;95854.31;;;13.70
42119;BMP280;27783;42.782;23.274;2023-09-19T03:16:19;95859.56;;;12.74
42119;BMP280;27783;42.782;23.274;2023-09-19T03:18:48;95860.34;;;12.71
42119;BMP280;27783;42.782;23.274;2023-09-19T03:21:15;95859.50;;;12.84
42119;BMP280;27783;42.782;23.274;2023-09-19T03:23:41;95852.00;;;12.76
42119;BMP280;27783;42.782;23.274;2023-09-19T03:26:11;95860.34;;;12.68
42119;BMP280;27783;42.782;23.274;2023-09-19T03:28:38;95864.34;;;12.19
42119;BMP280;27783;42.782;23.274;2023-09-19T03:31:05;95869.50;;;12.47
42119;BMP280;27783;42.782;23.274;2023-09-19T03:33:32;95874.38;;;12.58
42119;BMP280;27783;42.782;23.274;2023-09-19T03:35:58;95880.88;;;12.44
42119;BMP280;27783;42.782;23.274;2023-09-19T03:38:25;95868.72;;;12.60
42119;BMP280;27783;42.782;23.274;2023-09-19T03:40:50;95873.28;;;12.49
42119;BMP280;27783;42.782;23.274;2023-09-19T03:43:16;95879.31;;;12.49
42119;BMP280;27783;42.782;23.274;2023-09-19T03:45:41;95882.69;;;12.57
42119;BMP280;27783;42.782;23.274;2023-09-19T03:48:10;95873.94;;;12.77
42119;BMP280;27783;42.782;23.274;2023-09-19T03:50:36;95875.28;;;13.01
42119;BMP280;27783;42.782;23.274;2023-09-19T03:53:02;95884.31;;;12.34
42119;BMP280;27783;42.782;23.274;2023-09-19T03:55:28;95884.75;;;12.02
42119;BMP280;27783;42.782;23.274;2023-09-19T03:57:55;95892.63;;;12.22
42119;BMP280;27783;42.782;23.274;2023-09-19T04:00:21;95894.09;;;12.44
42119;BMP280;27783;42.782;23.274;2023-09-19T04:02:49;95895.25;;;12.26
42119;BMP280;27783;42.782;23.274;2023-09-19T04:05:14;95896.06;;;12.13
42119;BMP280;27783;42.782;23.274;2023-09-19T04:07:40;95899.84;;;12.12
42119;BMP280;27783;42.782;23.274;2023-09-19T04:10:06;95902.16;;;11.82
42119;BMP280;27783;42.782;23.274;2023-09-19T04:12:34;95896.06;;;12.06
42119;BMP280;27783;42.782;23.274;2023-09-19T04:15:00;95896.03;;;12.19
42119;BMP280;27783;42.782;23.274;2023-09-19T04:17:25;95892.94;;;12.45
42119;BMP280;27783;42.782;23.274;2023-09-19T04:19:51;95891.09;;;12.28
42119;BMP280;27783;42.782;23.274;2023-09-19T04:22:16;95889.97;;;12.29
42119;BMP280;27783;42.782;23.274;2023-09-19T04:24:41;95893.28;;;12.60
42119;BMP280;27783;42.782;23.274;2023-09-19T04:27:07;95895.97;;;12.43
42119;BMP280;27783;42.782;23.274;2023-09-19T04:29:32;95897.16;;;12.22
42119;BMP280;27783;42.782;23.274;2023-09-19T04:31:58;95893.75;;;12.25
42119;BMP280;27783;42.782;23.274;2023-09-19T04:34:23;95893.84;;;12.01
42119;BMP280;27783;42.782;23.274;2023-09-19T04:36:49;95888.13;;;12.16
42119;BMP280;27783;42.782;23.274;2023-09-19T04:39:14;95883.06;;;12.59
42119;BMP280;27783;42.782;23.274;2023-09-19T04:41:40;95881.47;;;12.75
42119;BMP280;27783;42.782;23.274;2023-09-19T04:44:06;95882.88;;;13.00
42119;BMP280;27783;42.782;23.274;2023-09-19T04:46:33;95874.09;;;13.09
42119;BMP280;27783;42.782;23.274;2023-09-19T04:48:58;95879.78;;;13.08
42119;BMP280;27783;42.782;23.274;2023-09-19T04:51:24;95875.50;;;13.24
42119;BMP280;27783;42.782;23.274;2023-09-19T04:53:51;95884.84;;;13.38
42119;BMP280;27783;42.782;23.274;2023-09-19T04:56:17;95879.00;;;13.57
42119;BMP280;27783;42.782;23.274;2023-09-19T04:58:42;95877.03;;;13.67
42119;BMP280;27783;42.782;23.274;2023-09-19T05:01:08;95873.59;;;13.70
42119;BMP280;27783;42.782;23.274;2023-09-19T05:03:36;95881.06;;;13.85
42119;BMP280;27783;42.782;23.274;2023-09-19T05:06:02;95865.25;;;13.79
42119;BMP280;27783;42.782;23.274;2023-09-19T05:08:27;95877.56;;;13.95
42119;BMP280;27783;42.782;23.274;2023-09-19T05:10:53;95886.31;;;13.92
42119;BMP280;27783;42.782;23.274;2023-09-19T05:13:18;95878.13;;;14.13
42119;BMP280;27783;42.782;23.274;2023-09-19T05:15:43;95884.06;;;14.23
42119;BMP280;27783;42.782;23.274;2023-09-19T05:18:09;95882.50;;;14.29
42119;BMP280;27783;42.782;23.274;2023-09-19T05:20:35;95881.00;;;14.28
42119;BMP280;27783;42.782;23.274;2023-09-19T05:23:04;95872.47;;;14.43
42119;BMP280;27783;42.782;23.274;2023-09-19T05:25:33;95875.09;;;14.76
42119;BMP280;27783;42.782;23.274;2023-09-19T05:28:02;95867.66;;;14.97
42119;BMP280;27783;42.782;23.274;2023-09-19T05:30:29;95864.91;;;15.03
42119;BMP280;27783;42.782;23.274;2023-09-19T05:32:54;95859.72;;;15.19
42119;BMP280;27783;42.782;23.274;2023-09-19T05:35:21;95870.19;;;15.29
42119;BMP280;27783;42.782;23.274;2023-09-19T05:37:50;95862.53;;;15.57
42119;BMP280;27783;42.782;23.274;2023-09-19T05:40:19;95851.84;;;15.60
42119;BMP280;27783;42.782;23.274;2023-09-19T05:42:45;95856.06;;;15.80
42119;BMP280;27783;42.782;23.274;2023-09-19T05:45:12;95861.91;;;15.94
42119;BMP280;27783;42.782;23.274;2023-09-19T05:47:41;95854.81;;;16.07
42119;BMP280;27783;42.782;23.274;2023-09-19T05:50:09;95861.25;;;16.09
42119;BMP280;27783;42.782;23.274;2023-09-19T05:52:35;95853.50;;;16.37
42119;BMP280;27783;42.782;23.274;2023-09-19T05:55:02;95860.44;;;16.50
42119;BMP280;27783;42.782;23.274;2023-09-19T05:57:30;95850.69;;;16.63
42119;BMP280;27783;42.782;23.274;2023-09-19T05:59:55;95847.63;;;16.64
42119;BMP280;27783;42.782;23.274;2023-09-19T06:02:21;95845.50;;;16.75
42119;BMP280;27783;42.782;23.274;2023-09-19T06:04:46;95841.97;;;16.97
42119;BMP280;27783;42.782;23.274;2023-09-19T06:07:11;95843.75;;;16.84
42119;BMP280;27783;42.782;23.274;2023-09-19T06:09:37;95844.53;;;16.84
42119;BMP280;27783;42.782;23.274;2023-09-19T06:12:04;95841.59;;;17.14
42119;BMP280;27783;42.782;23.274;2023-09-19T06:14:30;95837.63;;;17.21
42119;BMP280;27783;42.782;23.274;2023-09-19T06:16:56;95838.78;;;17.20
42119;BMP280;27783;42.782;23.274;2023-09-19T06:19:21;95828.72;;;17.28
42119;BMP280;27783;42.782;23.274;2023-09-19T06:21:48;95830.72;;;17.39
42119;BMP280;27783;42.782;23.274;2023-09-19T06:24:14;95822.34;;;17.68
42119;BMP280;27783;42.782;23.274;2023-09-19T06:26:40;95824.47;;;18.04
42119;BMP280;27783;42.782;23.274;2023-09-19T06:29:06;95828.50;;;18.24
42119;BMP280;27783;42.782;23.274;2023-09-19T06:31:34;95817.06;;;18.52
42119;BMP280;27783;42.782;23.274;2023-09-19T06:34:00;95819.84;;;18.60
42119;BMP280;27783;42.782;23.274;2023-09-19T06:36:25;95821.84;;;18.44
42119;BMP280;27783;42.782;23.274;2023-09-19T06:38:50;95819.75;;;18.52
42119;BMP280;27783;42.782;23.274;2023-09-19T06:41:19;95827.38;;;18.37
42119;BMP280;27783;42.782;23.274;2023-09-19T06:43:44;95820.88;;;18.66
42119;BMP280;27783;42.782;23.274;2023-09-19T06:46:10;95828.03;;;18.69
42119;BMP280;27783;42.782;23.274;2023-09-19T06:48:35;95822.91;;;18.86
42119;BMP280;27783;42.782;23.274;2023-09-19T06:51:01;95823.03;;;19.19
42119;BMP280;27783;42.782;23.274;2023-09-19T06:53:31;95818.88;;;18.94
42119;BMP280;27783;42.782;23.274;2023-09-19T06:55:58;95818.56;;;19.17
42119;BMP280;27783;42.782;23.274;2023-09-19T06:58:23;95825.50;;;19.38
42119;BMP280;27783;42.782;23.274;2023-09-19T07:00:48;95830.94;;;19.47
42119;BMP280;27783;42.782;23.274;2023-09-19T07:03:15;95833.41;;;19.66
42119;BMP280;27783;42.782;23.274;2023-09-19T07:05:47;95832.13;;;19.70
42119;BMP280;27783;42.782;23.274;2023-09-19T07:08:13;95825.50;;;19.63
42119;BMP280;27783;42.782;23.274;2023-09-19T07:10:41;95826.00;;;19.46
42119;BMP280;27783;42.782;23.274;2023-09-19T07:13:08;95821.78;;;19.93
42119;BMP280;27783;42.782;23.274;2023-09-19T07:15:36;95818.56;;;20.19
42119;BMP280;27783;42.782;23.274;2023-09-19T07:18:05;95823.78;;;19.69
42119;BMP280;27783;42.782;23.274;2023-09-19T07:20:31;95822.72;;;19.99
42119;BMP280;27783;42.782;23.274;2023-09-19T07:23:00;95824.28;;;20.09
42119;BMP280;27783;42.782;23.274;2023-09-19T07:25:26;95815.16;;;20.31
42119;BMP280;27783;42.782;23.274;2023-09-19T07:27:55;95825.16;;;20.06
42119;BMP280;27783;42.782;23.274;2023-09-19T07:30:20;95827.00;;;19.97
42119;BMP280;27783;42.782;23.274;2023-09-19T07:32:46;95829.59;;;20.33
42119;BMP280;27783;42.782;23.274;2023-09-19T07:35:11;95824.00;;;20.61
42119;BMP280;27783;42.782;23.274;2023-09-19T07:37:37;95822.97;;;20.46
42119;BMP280;27783;42.782;23.274;2023-09-19T07:40:03;95836.44;;;20.76
42119;BMP280;27783;42.782;23.274;2023-09-19T07:42:35;95824.41;;;20.59
42119;BMP280;27783;42.782;23.274;2023-09-19T07:45:23;95828.81;;;20.74
42119;BMP280;27783;42.782;23.274;2023-09-19T07:47:51;95840.28;;;20.75
42119;BMP280;27783;42.782;23.274;2023-09-19T07:50:17;95836.03;;;21.45
42119;BMP280;27783;42.782;23.274;2023-09-19T07:52:47;95824.16;;;21.64
42119;BMP280;27783;42.782;23.274;2023-09-19T07:55:14;95826.00;;;21.28
42119;BMP280;27783;42.782;23.274;2023-09-19T07:57:43;95820.00;;;21.16
42119;BMP280;27783;42.782;23.274;2023-09-19T08:00:09;95815.00;;;21.44
42119;BMP280;27783;42.782;23.274;2023-09-19T08:02:39;95802.59;;;21.29
42119;BMP280;27783;42.782;23.274;2023-09-19T08:05:06;95797.03;;;21.53
42119;BMP280;27783;42.782;23.274;2023-09-19T08:07:40;95806.13;;;21.64
42119;BMP280;27783;42.782;23.274;2023-09-19T08:10:08;95795.50;;;21.43
42119;BMP280;27783;42.782;23.274;2023-09-19T08:12:37;95803.78;;;21.66
42119;BMP280;27783;42.782;23.274;2023-09-19T08:15:03;95798.91;;;21.44
42119;BMP280;27783;42.782;23.274;2023-09-19T08:17:29;95792.50;;;22.06
42119;BMP280;27783;42.782;23.274;2023-09-19T08:19:54;95793.38;;;22.03
42119;BMP280;27783;42.782;23.274;2023-09-19T08:22:20;95782.94;;;21.88
42119;BMP280;27783;42.782;23.274;2023-09-19T08:24:47;95794.31;;;22.09
42119;BMP280;27783;42.782;23.274;2023-09-19T08:27:19;95796.97;;;22.26
42119;BMP280;27783;42.782;23.274;2023-09-19T08:30:00;95801.88;;;22.45
42119;BMP280;27783;42.782;23.274;2023-09-19T08:32:26;95798.09;;;21.64
42119;BMP280;27783;42.782;23.274;2023-09-19T08:34:52;95795.78;;;22.27
42119;BMP280;27783;42.782;23.274;2023-09-19T08:37:18;95797.53;;;22.74
42119;BMP280;27783;42.782;23.274;2023-09-19T08:39:44;95797.13;;;22.23
42119;BMP280;27783;42.782;23.274;2023-09-19T08:42:10;95784.53;;;22.72
42119;BMP280;27783;42.782;23.274;2023-09-19T08:44:37;95783.69;;;22.23
42119;BMP280;27783;42.782;23.274;2023-09-19T08:47:15;95777.44;;;22.17
42119;BMP280;27783;42.782;23.274;2023-09-19T08:50:11;95775.66;;;21.79
42119;BMP280;27783;42.782;23.274;2023-09-19T08:52:46;95781.16;;;22.28
42119;BMP280;27783;42.782;23.274;2023-09-19T08:55:13;95773.63;;;22.76
42119;BMP280;27783;42.782;23.274;2023-09-19T08:57:45;95772.09;;;23.33
42119;BMP280;27783;42.782;23.274;2023-09-19T09:00:15;95776.28;;;23.34
42119;BMP280;27783;42.782;23.274;2023-09-19T09:02:43;95780.47;;;23.57
42119;BMP280;27783;42.782;23.274;2023-09-19T09:05:09;95773.72;;;23.85
42119;BMP280;27783;42.782;23.274;2023-09-19T09:07:38;95775.47;;;23.10
42119;BMP280;27783;42.782;23.274;2023-09-19T09:10:04;95771.97;;;23.19
42119;BMP280;27783;42.782;23.274;2023-09-19T09:12:30;95771.22;;;24.04
42119;BMP280;27783;42.782;23.274;2023-09-19T09:14:56;95765.22;;;23.63
42119;BMP280;27783;42.782;23.274;2023-09-19T09:17:26;95761.28;;;23.64
42119;BMP280;27783;42.782;23.274;2023-09-19T09:19:54;95759.19;;;23.05
42119;BMP280;27783;42.782;23.274;2023-09-19T09:22:21;95749.53;;;24.50
42119;BMP280;27783;42.782;23.274;2023-09-19T09:24:56;95751.06;;;23.77
42119;BMP280;27783;42.782;23.274;2023-09-19T09:27:28;95738.13;;;23.67
42119;BMP280;27783;42.782;23.274;2023-09-19T09:29:54;95737.13;;;24.01
42119;BMP280;27783;42.782;23.274;2023-09-19T09:34:49;95730.06;;;23.81
42119;BMP280;27783;42.782;23.274;2023-09-19T09:37:16;95721.53;;;24.05
42119;BMP280;27783;42.782;23.274;2023-09-19T09:39:55;95717.38;;;24.18
42119;BMP280;27783;42.782;23.274;2023-09-19T09:42:34;95714.34;;;24.39
42119;BMP280;27783;42.782;23.274;2023-09-19T09:45:23;95713.47;;;24.33
42119;BMP280;27783;42.782;23.274;2023-09-19T09:48:01;95713.31;;;24.23
42119;BMP280;27783;42.782;23.274;2023-09-19T09:53:26;95718.78;;;25.65
42119;BMP280;27783;42.782;23.274;2023-09-19T09:56:02;95717.22;;;25.40
42119;BMP280;27783;42.782;23.274;2023-09-19T09:58:52;95703.88;;;25.03
42119;BMP280;27783;42.782;23.274;2023-09-19T10:01:48;95713.91;;;24.55
42119;BMP280;27783;42.782;23.274;2023-09-19T10:04:27;95704.09;;;24.43
42119;BMP280;27783;42.782;23.274;2023-09-19T10:06:55;95701.41;;;24.29
42119;BMP280;27783;42.782;23.274;2023-09-19T10:09:22;95696.19;;;24.11
42119;BMP280;27783;42.782;23.274;2023-09-19T10:12:10;95704.13;;;24.71
42119;BMP280;27783;42.782;23.274;2023-09-19T10:14:38;95695.03;;;25.16
42119;BMP280;27783;42.782;23.274;2023-09-19T10:17:05;95696.66;;;24.80
42119;BMP280;27783;42.782;23.274;2023-09-19T10:19:42;95700.75;;;24.48
42119;BMP280;27783;42.782;23.274;2023-09-19T10:22:14;95702.81;;;24.95
42119;BMP280;27783;42.782;23.274;2023-09-19T10:24:47;95699.75;;;24.73
42119;BMP280;27783;42.782;23.274;2023-09-19T10:27:16;95697.56;;;25.39
42119;BMP280;27783;42.782;23.274;2023-09-19T10:29:44;95693.97;;;24.94
42119;BMP280;27783;42.782;23.274;2023-09-19T10:32:15;95694.13;;;25.05
42119;BMP280;27783;42.782;23.274;2023-09-19T10:34:46;95690.31;;;25.45
42119;BMP280;27783;42.782;23.274;2023-09-19T10:37:12;95685.81;;;25.42
42119;BMP280;27783;42.782;23.274;2023-09-19T10:39:46;95690.56;;;24.52
42119;BMP280;27783;42.782;23.274;2023-09-19T10:42:17;95681.97;;;25.29
42119;BMP280;27783;42.782;23.274;2023-09-19T10:44:45;95679.78;;;24.52
42119;BMP280;27783;42.782;23.274;2023-09-19T10:47:12;95676.56;;;25.29
42119;BMP280;27783;42.782;23.274;2023-09-19T10:49:44;95667.69;;;25.09
42119;BMP280;27783;42.782;23.274;2023-09-19T10:52:13;95661.56;;;25.81
42119;BMP280;27783;42.782;23.274;2023-09-19T10:54:46;95672.19;;;24.98
42119;BMP280;27783;42.782;23.274;2023-09-19T10:57:25;95666.63;;;24.87
42119;BMP280;27783;42.782;23.274;2023-09-19T11:00:06;95656.38;;;25.58
42119;BMP280;27783;42.782;23.274;2023-09-19T11:05:41;95660.50;;;24.87
42119;BMP280;27783;42.782;23.274;2023-09-19T11:08:11;95659.91;;;25.69
42119;BMP280;27783;42.782;23.274;2023-09-19T11:10:49;95658.03;;;25.03
42119;BMP280;27783;42.782;23.274;2023-09-19T11:13:25;95663.91;;;25.01
42119;BMP280;27783;42.782;23.274;2023-09-19T11:21:53;95648.56;;;26.04
42119;BMP280;27783;42.782;23.274;2023-09-19T11:26:48;95634.09;;;26.07
42119;BMP280;27783;42.782;23.274;2023-09-19T11:29:40;95624.09;;;27.03
42119;BMP280;27783;42.782;23.274;2023-09-19T11:32:06;95620.91;;;26.39
42119;BMP280;27783;42.782;23.274;2023-09-19T11:34:45;95627.78;;;25.71
42119;BMP280;27783;42.782;23.274;2023-09-19T11:39:40;95605.19;;;27.08
42119;BMP280;27783;42.782;23.274;2023-09-19T11:46:01;95607.06;;;26.37
42119;BMP280;27783;42.782;23.274;2023-09-19T11:48:52;95596.06;;;26.71
42119;BMP280;27783;42.782;23.274;2023-09-19T11:51:19;95587.09;;;26.90
42119;BMP280;27783;42.782;23.274;2023-09-19T11:53:55;95588.84;;;27.39
42119;BMP280;27783;42.782;23.274;2023-09-19T11:56:23;95581.59;;;27.71
42119;BMP280;27783;42.782;23.274;2023-09-19T11:58:51;95586.47;;;26.70
42119;BMP280;27783;42.782;23.274;2023-09-19T12:01:30;95564.97;;;27.37
42119;BMP280;27783;42.782;23.274;2023-09-19T12:03:58;95557.47;;;27.84
42119;BMP280;27783;42.782;23.274;2023-09-19T12:06:28;95554.06;;;28.10
42119;BMP280;27783;42.782;23.274;2023-09-19T12:08:55;95551.59;;;28.12
42119;BMP280;27783;42.782;23.274;2023-09-19T12:11:23;95560.03;;;28.25
42119;BMP280;27783;42.782;23.274;2023-09-19T12:13:50;95550.56;;;27.83
42119;BMP280;27783;42.782;23.274;2023-09-19T12:16:19;95547.38;;;27.79
42119;BMP280;27783;42.782;23.274;2023-09-19T12:18:47;95538.84;;;27.34
42119;BMP280;27783;42.782;23.274;2023-09-19T12:21:41;95535.34;;;28.60
42119;BMP280;27783;42.782;23.274;2023-09-19T12:24:16;95538.34;;;28.14
42119;BMP280;27783;42.782;23.274;2023-09-19T12:26:45;95536.31;;;27.88
42119;BMP280;27783;42.782;23.274;2023-09-19T12:29:17;95526.22;;;29.45
42119;BMP280;27783;42.782;23.274;2023-09-19T12:31:50;95526.25;;;28.20
42119;BMP280;27783;42.782;23.274;2023-09-19T12:34:28;95516.91;;;29.75
42119;BMP280;27783;42.782;23.274;2023-09-19T12:39:30;95521.41;;;29.11
42119;BMP280;27783;42.782;23.274;2023-09-19T12:41:56;95523.28;;;28.34
42119;BMP280;27783;42.782;23.274;2023-09-19T12:44:21;95521.50;;;28.85
42119;BMP280;27783;42.782;23.274;2023-09-19T12:46:49;95512.47;;;29.32
42119;BMP280;27783;42.782;23.274;2023-09-19T12:49:20;95508.97;;;28.39
42119;BMP280;27783;42.782;23.274;2023-09-19T12:51:47;95506.75;;;28.32
42119;BMP280;27783;42.782;23.274;2023-09-19T12:54:13;95503.47;;;28.93
42119;BMP280;27783;42.782;23.274;2023-09-19T12:56:45;95498.59;;;28.48
42119;BMP280;27783;42.782;23.274;2023-09-19T12:59:13;95491.09;;;29.02
42119;BMP280;27783;42.782;23.274;2023-09-19T13:01:40;95496.13;;;28.56
42119;BMP280;27783;42.782;23.274;2023-09-19T13:04:21;95493.41;;;28.77
42119;BMP280;27783;42.782;23.274;2023-09-19T13:06:55;95485.81;;;28.33
42119;BMP280;27783;42.782;23.274;2023-09-19T13:09:26;95490.06;;;29.60
42119;BMP280;27783;42.782;23.274;2023-09-19T13:12:04;95483.53;;;29.85
42119;BMP280;27783;42.782;23.274;2023-09-19T13:14:30;95479.88;;;29.32
42119;BMP280;27783;42.782;23.274;2023-09-19T13:17:06;95477.31;;;28.84
42119;BMP280;27783;42.782;23.274;2023-09-19T13:19:51;95476.13;;;28.80
42119;BMP280;27783;42.782;23.274;2023-09-19T13:25:16;95473.09;;;28.99
42119;BMP280;27783;42.782;23.274;2023-09-19T13:30:20;95460.28;;;29.50
42119;BMP280;27783;42.782;23.274;2023-09-19T13:32:46;95459.34;;;29.76
42119;BMP280;27783;42.782;23.274;2023-09-19T13:35:13;95466.69;;;29.47
42119;BMP280;27783;42.782;23.274;2023-09-19T13:37:39;95465.59;;;29.16
42119;BMP280;27783;42.782;23.274;2023-09-19T13:40:12;95460.50;;;29.52
42119;BMP280;27783;42.782;23.274;2023-09-19T13:42:38;95459.06;;;30.65
42119;BMP280;27783;42.782;23.274;2023-09-19T13:45:04;95443.88;;;29.27
42119;BMP280;27783;42.782;23.274;2023-09-19T13:47:30;95451.66;;;29.80
42119;BMP280;27783;42.782;23.274;2023-09-19T13:49:55;95443.75;;;30.39
42119;BMP280;27783;42.782;23.274;2023-09-19T13:52:21;95455.63;;;29.74
42119;BMP280;27783;42.782;23.274;2023-09-19T13:54:49;95450.03;;;30.00
42119;BMP280;27783;42.782;23.274;2023-09-19T13:57:16;95445.09;;;30.27
42119;BMP280;27783;42.782;23.274;2023-09-19T13:59:42;95440.56;;;29.39
42119;BMP280;27783;42.782;23.274;2023-09-19T14:02:07;95447.94;;;28.93
42119;BMP280;27783;42.782;23.274;2023-09-19T14:04:33;95451.44;;;29.39
42119;BMP280;27783;42.782;23.274;2023-09-19T14:07:00;95450.06;;;29.11
42119;BMP280;27783;42.782;23.274;2023-09-19T14:09:26;95440.38;;;30.28
42119;BMP280;27783;42.782;23.274;2023-09-19T14:11:51;95449.31;;;29.16
42119;BMP280;27783;42.782;23.274;2023-09-19T14:14:20;95450.69;;;29.38
42119;BMP280;27783;42.782;23.274;2023-09-19T14:16:47;95440.28;;;30.10
42119;BMP280;27783;42.782;23.274;2023-09-19T14:19:12;95442.53;;;29.38
42119;BMP280;27783;42.782;23.274;2023-09-19T14:21:39;95437.34;;;28.90
42119;BMP280;27783;42.782;23.274;2023-09-19T14:24:04;95433.88;;;29.45
42119;BMP280;27783;42.782;23.274;2023-09-19T14:26:34;95438.25;;;28.26
42119;BMP280;27783;42.782;23.274;2023-09-19T14:29:00;95429.66;;;28.99
42119;BMP280;27783;42.782;23.274;2023-09-19T14:31:25;95425.03;;;28.78
42119;BMP280;27783;42.782;23.274;2023-09-19T14:33:54;95436.50;;;28.40
42119;BMP280;27783;42.782;23.274;2023-09-19T14:36:20;95430.13;;;28.16
42119;BMP280;27783;42.782;23.274;2023-09-19T14:38:47;95420.97;;;29.06
42119;BMP280;27783;42.782;23.274;2023-09-19T14:41:13;95414.38;;;28.96
42119;BMP280;27783;42.782;23.274;2023-09-19T14:43:39;95424.59;;;28.64
42119;BMP280;27783;42.782;23.274;2023-09-19T14:46:07;95426.56;;;28.69
42119;BMP280;27783;42.782;23.274;2023-09-19T14:48:34;95423.13;;;28.52